Blawenburg, New Jersey
Current Conditions -  °F | °C
As of 9:53 PM on Saturday 25 Oct 2014 (Local Time) from KTTN Reporting Station
Clear Clear  
Wind Chill: 16°   Ceiling: Unl
Heat Index: 16°   Visibility: 10mi
Dew Point:   Wind: 8mph
Humidity: 52%   Direction: 230°SW
Pressure: 29.64"   Gusts: NA
Location:  40.41°N, 74.7°W
Report Text: KTTN 260153Z AUTO 23007KT 10SM CLR 16/06 A2964 RMK AO2 SLP032 T01610061
Loading
Personal Weather Stations






























Interactive Weather Map
Tropical Storm Tracking
New forecast layout! Learn more

10-Day Weather Forecast

Advertisements
Track Severe Weather on mobile